Time;durP1;ratioP1;P1;durP2;ratioP2;P2;SDS_P1;SDS_P2;PMS_P1;PMS_P2;Temp;Humidity;BMP_temperature;BMP_pressure;BME280_temperature;BME280_humidity;BME280_pressure;Samples;Min_cycle;Max_cycle;Signal;HPM_P1;HPM_P2
2021/12/23 00:01:18;;;;;;;15.23;9.43;;;29.50;83.40;;;;;;5066540;28;20021;-44
2021/12/23 00:03:45;;;;;;;14.55;9.18;;;29.50;83.20;;;;;;5066946;28;20364;-47
2021/12/23 00:06:11;;;;;;;20.10;8.73;;;29.50;83.10;;;;;;5066802;28;20044;-46
2021/12/23 00:08:38;;;;;;;15.77;9.00;;;29.40;83.00;;;;;;5066251;28;20309;-47
2021/12/23 00:11:04;;;;;;;16.05;9.50;;;29.40;82.90;;;;;;5065961;28;20025;-43
2021/12/23 00:13:34;;;;;;;14.20;9.40;;;29.40;82.80;;;;;;5056724;28;20025;-51
2021/12/23 00:16:03;;;;;;;16.50;9.05;;;29.40;83.30;;;;;;5053355;28;20027;-49
2021/12/23 00:18:44;;;;;;;25.83;11.25;;;29.40;82.60;;;;;;5046421;28;20210;-48
2021/12/23 00:24:00;;;;;;;20.95;8.25;;;29.30;82.20;;;;;;5046490;28;20336;-51
2021/12/23 00:26:28;;;;;;;18.17;7.80;;;29.30;82.20;;;;;;5046392;28;20026;-47
2021/12/23 00:28:54;;;;;;;20.02;8.30;;;29.30;82.00;;;;;;5029010;28;20295;-52
2021/12/23 00:31:22;;;;;;;14.38;8.27;;;29.30;81.90;;;;;;5046260;28;20033;-47
2021/12/23 00:33:48;;;;;;;13.88;7.82;;;29.30;81.70;;;;;;5046376;28;20021;-47
2021/12/23 00:36:15;;;;;;;13.60;7.78;;;29.30;81.70;;;;;;5046340;28;20033;-45
2021/12/23 00:38:48;;;;;;;14.10;7.93;;;29.30;81.50;;;;;;5046150;28;20093;-54
2021/12/23 00:41:15;;;;;;;12.63;7.35;;;29.20;81.50;;;;;;5046608;28;20036;-46
2021/12/23 00:43:41;;;;;;;14.35;7.80;;;29.20;81.30;;;;;;5046278;28;20040;-45
2021/12/23 00:46:08;;;;;;;11.95;7.47;;;29.20;81.40;;;;;;5046251;28;20020;-51
2021/12/23 00:48:39;;;;;;;16.50;7.88;;;29.20;81.50;;;;;;5053236;28;20032;-48
2021/12/23 00:51:07;;;;;;;21.40;7.72;;;29.20;81.40;;;;;;5062345;28;20058;-46
2021/12/23 00:53:39;;;;;;;14.70;7.88;;;29.20;81.60;;;;;;5058011;28;20021;-51
2021/12/23 00:56:06;;;;;;;;;;;29.10;81.40;;;;;;5065816;28;20021;-49
2021/12/23 00:58:33;;;;;;;21.38;11.45;;;29.20;81.60;;;;;;5063642;28;19952;-50
2021/12/23 01:01:00;;;;;;;47.45;35.95;;;29.20;81.60;;;;;;5064458;28;20036;-47
2021/12/23 01:03:27;;;;;;;42.00;29.52;;;29.20;81.60;;;;;;5065774;28;20080;-47
2021/12/23 01:05:54;;;;;;;42.63;28.55;;;29.20;81.50;;;;;;5064483;28;20009;-48
2021/12/23 01:08:21;;;;;;;64.15;44.22;;;29.20;81.40;;;;;;5060950;28;20025;-45
2021/12/23 01:10:51;;;;;;;42.92;32.67;;;29.20;81.30;;;;;;5038421;28;20300;-52
2021/12/23 01:13:19;;;;;;;39.05;28.25;;;29.20;81.20;;;;;;5055298;28;20028;-51
2021/12/23 01:18:42;;;;;;;50.08;41.10;;;29.30;81.00;;;;;;5057070;28;20092;-51
2021/12/23 01:21:16;;;;;;;64.18;55.33;;;29.30;80.80;;;;;;5060126;28;20028;-44
2021/12/23 01:23:44;;;;;;;61.97;52.45;;;29.30;80.50;;;;;;5065330;28;20028;-52
2021/12/23 01:26:11;;;;;;;57.00;48.03;;;29.30;80.40;;;;;;5047699;28;20063;-46
2021/12/23 01:28:38;;;;;;;49.85;43.58;;;29.30;80.20;;;;;;5058873;28;20048;-52
2021/12/23 01:31:08;;;;;;;62.65;46.78;;;29.20;79.90;;;;;;5048022;28;20091;-48
2021/12/23 01:33:34;;;;;;;51.40;45.05;;;29.20;79.80;;;;;;5045156;28;20329;-46
2021/12/23 01:36:01;;;;;;;54.42;48.42;;;29.20;79.80;;;;;;5045176;28;20029;-48
2021/12/23 01:38:27;;;;;;;52.67;46.00;;;29.20;79.70;;;;;;5044583;28;20025;-44
2021/12/23 01:40:54;;;;;;;74.47;63.22;;;29.20;79.50;;;;;;5027153;28;20086;-47
2021/12/23 01:43:20;;;;;;;78.90;63.60;;;29.20;79.50;;;;;;5044884;28;20076;-48
2021/12/23 01:45:50;;;;;;;64.13;55.92;;;29.20;79.40;;;;;;5053627;28;20051;-48
2021/12/23 01:48:19;;;;;;;120.65;107.65;;;29.20;79.40;;;;;;5046637;28;20341;-49
2021/12/23 01:50:47;;;;;;;73.45;59.47;;;29.20;79.30;;;;;;5044815;28;20049;-47
2021/12/23 01:53:15;;;;;;;64.05;52.28;;;29.20;79.20;;;;;;5045165;28;20027;-47
2021/12/23 01:55:46;;;;;;;52.05;44.17;;;29.20;79.20;;;;;;5045256;28;20044;-44
2021/12/23 01:58:14;;;;;;;36.47;32.57;;;29.20;79.10;;;;;;5053895;28;20048;-44
2021/12/23 02:00:44;;;;;;;36.13;30.35;;;29.20;79.10;;;;;;5044585;28;20253;-50
2021/12/23 02:03:11;;;;;;;29.23;24.92;;;29.20;79.10;;;;;;5044603;28;20021;-48
2021/12/23 02:05:38;;;;;;;26.85;20.08;;;29.20;79.10;;;;;;5044580;28;20018;-47
2021/12/23 02:08:05;;;;;;;25.50;20.02;;;29.20;79.10;;;;;;5059818;28;20033;-50
2021/12/23 02:10:32;;;;;;;22.58;17.88;;;29.20;79.20;;;;;;5047141;28;20092;-52
2021/12/23 02:12:59;;;;;;;20.83;16.63;;;29.10;79.10;;;;;;5044799;28;20088;-51
2021/12/23 02:15:26;;;;;;;30.10;16.27;;;29.10;79.00;;;;;;5051734;28;20028;-47
2021/12/23 02:17:54;;;;;;;28.38;14.48;;;29.10;78.80;;;;;;5059925;28;20028;-52
2021/12/23 02:20:28;;;;;;;22.33;12.88;;;29.10;78.70;;;;;;5052681;28;20088;-48
2021/12/23 02:22:55;;;;;;;23.95;11.80;;;29.20;78.70;;;;;;5051628;28;20259;-44
2021/12/23 02:25:22;;;;;;;17.10;10.65;;;29.10;78.30;;;;;;5035589;28;20024;-43
2021/12/23 02:27:55;;;;;;;23.05;10.55;;;29.10;78.30;;;;;;5054293;28;20026;-42
2021/12/23 02:30:27;;;;;;;20.35;10.52;;;29.10;78.40;;;;;;5054509;28;20060;-48
2021/12/23 02:32:55;;;;;;;21.00;10.07;;;29.10;78.40;;;;;;5052367;28;20092;-48
2021/12/23 02:35:24;;;;;;;22.45;9.43;;;29.10;78.30;;;;;;5053154;28;20017;-47
2021/12/23 02:37:51;;;;;;;13.75;8.25;;;29.00;78.00;;;;;;5058386;28;20032;-47
2021/12/23 02:40:30;;;;;;;20.25;8.10;;;29.00;78.00;;;;;;5040964;28;20023;-44
2021/12/23 02:43:07;;;;;;;11.95;7.38;;;29.00;77.80;;;;;;5058419;28;20017;-49
2021/12/23 02:45:34;;;;;;;12.52;7.00;;;29.00;77.60;;;;;;5057367;28;20175;-49
2021/12/23 02:48:01;;;;;;;11.50;7.15;;;29.00;77.40;;;;;;5052821;28;20017;-48
2021/12/23 02:50:28;;;;;;;10.52;7.15;;;29.00;77.30;;;;;;5052860;28;20076;-54
2021/12/23 02:52:54;;;;;;;12.65;6.70;;;29.00;77.20;;;;;;5052337;28;20029;-48
2021/12/23 02:55:21;;;;;;;12.55;6.53;;;29.00;77.10;;;;;;5055517;28;20020;-55
2021/12/23 02:57:47;;;;;;;12.95;6.65;;;29.00;77.00;;;;;;5056710;28;20242;-50
2021/12/23 03:00:14;;;;;;;11.10;6.70;;;29.00;76.70;;;;;;5051961;28;20344;-50
2021/12/23 03:02:41;;;;;;;9.82;6.78;;;28.90;76.80;;;;;;5052776;28;20021;-45
2021/12/23 03:05:09;;;;;;;10.25;6.65;;;28.90;76.50;;;;;;5057561;28;20027;-44
2021/12/23 03:07:35;;;;;;;9.73;5.80;;;28.90;76.30;;;;;;5057270;28;20052;-45
2021/12/23 03:10:05;;;;;;;7.90;5.60;;;28.90;76.20;;;;;;5052852;28;20017;-47
2021/12/23 03:12:32;;;;;;;14.20;6.00;;;28.90;76.20;;;;;;5036461;28;20309;-49
2021/12/23 03:15:00;;;;;;;11.13;5.95;;;28.90;76.20;;;;;;5054189;28;20086;-46
2021/12/23 03:17:27;;;;;;;9.18;5.45;;;28.90;76.10;;;;;;5052521;28;20028;-46
2021/12/23 03:19:53;;;;;;;17.52;6.95;;;28.90;75.90;;;;;;5052275;28;20040;-44
2021/12/23 03:22:20;;;;;;;12.32;8.75;;;28.90;75.70;;;;;;5043752;28;20026;-48
2021/12/23 03:24:46;;;;;;;12.32;7.78;;;28.90;75.70;;;;;;5042848;28;20025;-54
2021/12/23 03:27:13;;;;;;;13.05;7.03;;;28.90;75.50;;;;;;5043111;28;20025;-47
2021/12/23 03:29:40;;;;;;;14.00;7.05;;;28.90;75.40;;;;;;5043393;28;20060;-44
2021/12/23 03:32:07;;;;;;;11.43;7.10;;;28.90;76.00;;;;;;5052497;28;20028;-45
2021/12/23 03:34:34;;;;;;;8.27;6.43;;;28.80;75.30;;;;;;5063247;28;20021;-46
2021/12/23 03:37:00;;;;;;;8.23;6.25;;;28.90;75.40;;;;;;5063611;28;20028;-48
2021/12/23 03:39:27;;;;;;;7.75;5.65;;;28.90;75.20;;;;;;5063334;28;20016;-48
2021/12/23 03:41:54;;;;;;;8.75;5.68;;;28.80;75.10;;;;;;5063388;28;20021;-52
2021/12/23 03:44:22;;;;;;;9.88;5.18;;;28.80;75.00;;;;;;5063136;28;20021;-47
2021/12/23 03:46:49;;;;;;;7.57;5.15;;;28.80;75.00;;;;;;5057384;28;20021;-46
2021/12/23 03:49:16;;;;;;;7.35;5.50;;;28.80;75.10;;;;;;5048016;28;20021;-47
2021/12/23 03:51:43;;;;;;;8.00;5.18;;;28.80;74.90;;;;;;5043076;28;20097;-44
2021/12/23 03:54:09;;;;;;;7.10;4.60;;;28.80;75.00;;;;;;5042599;28;20025;-49
2021/12/23 03:56:36;;;;;;;6.93;4.93;;;28.80;75.00;;;;;;5042521;28;20059;-52
2021/12/23 03:59:03;;;;;;;10.88;4.63;;;28.70;74.80;;;;;;5025154;28;20056;-43
2021/12/23 04:01:31;;;;;;;8.05;4.72;;;28.80;74.90;;;;;;5043596;28;20337;-46
2021/12/23 04:03:58;;;;;;;7.53;5.10;;;28.70;74.80;;;;;;5046013;28;20089;-45
2021/12/23 04:06:26;;;;;;;7.20;4.88;;;28.70;74.70;;;;;;5046271;28;20021;-45
2021/12/23 04:08:54;;;;;;;7.32;5.20;;;28.70;74.80;;;;;;5046040;28;20187;-45
2021/12/23 04:11:23;;;;;;;6.93;4.57;;;28.70;74.80;;;;;;5045937;28;20064;-51
2021/12/23 04:13:52;;;;;;;7.47;4.93;;;28.70;74.70;;;;;;5045985;28;20310;-52
2021/12/23 04:16:20;;;;;;;6.55;4.38;;;28.70;74.80;;;;;;5050112;28;20033;-52
2021/12/23 04:18:49;;;;;;;7.93;4.57;;;28.70;74.80;;;;;;5059774;28;20021;-51
2021/12/23 04:21:16;;;;;;;8.82;4.68;;;28.70;74.60;;;;;;5057314;28;20055;-51
2021/12/23 04:23:43;;;;;;;6.85;4.63;;;28.70;74.60;;;;;;5056446;28;20245;-46
2021/12/23 04:26:09;;;;;;;7.10;4.20;;;28.70;74.50;;;;;;5055583;28;20229;-49
2021/12/23 04:28:45;;;;;;;9.25;4.50;;;28.70;74.50;;;;;;5055051;28;20229;-51
2021/12/23 04:31:17;;;;;;;7.95;4.47;;;28.60;74.60;;;;;;5056176;28;20358;-50
2021/12/23 04:33:46;;;;;;;7.00;4.60;;;28.60;74.30;;;;;;5056330;28;20071;-44
2021/12/23 04:36:13;;;;;;;5.55;4.38;;;28.60;74.30;;;;;;5055887;28;20087;-46
2021/12/23 04:38:42;;;;;;;10.60;4.20;;;28.60;74.10;;;;;;5053649;28;20025;-43
2021/12/23 04:41:09;;;;;;;9.38;4.13;;;28.60;73.90;;;;;;5063868;28;20024;-54
2021/12/23 04:43:36;;;;;;;8.20;4.45;;;28.60;73.80;;;;;;5056851;28;20285;-44
2021/12/23 04:46:03;;;;;;;7.05;4.38;;;28.60;74.00;;;;;;5056849;28;20210;-48
2021/12/23 04:48:33;;;;;;;7.53;4.38;;;28.60;73.70;;;;;;5054892;28;20190;-46
2021/12/23 04:51:00;;;;;;;22.67;4.82;;;28.60;73.90;;;;;;5071317;28;20019;-45
2021/12/23 04:53:27;;;;;;;5.88;4.50;;;28.60;73.50;;;;;;5054457;28;20018;-48
2021/12/23 04:55:53;;;;;;;7.07;4.07;;;28.60;73.40;;;;;;5054323;28;20013;-45
2021/12/23 04:58:20;;;;;;;7.68;4.35;;;28.60;73.30;;;;;;5055719;28;20024;-41
2021/12/23 05:00:49;;;;;;;8.57;4.30;;;28.60;73.30;;;;;;5054215;28;20021;-48
2021/12/23 05:03:22;;;;;;;5.43;4.07;;;28.60;73.20;;;;;;5054445;28;20023;-47
2021/12/23 05:05:49;;;;;;;6.25;3.88;;;28.50;73.00;;;;;;5055805;28;20036;-42
2021/12/23 05:08:16;;;;;;;5.65;3.88;;;28.50;72.90;;;;;;5055552;28;20032;-42
2021/12/23 05:10:44;;;;;;;6.78;4.70;;;28.50;72.70;;;;;;5045543;28;20091;-44
2021/12/23 05:13:11;;;;;;;4.78;4.00;;;28.50;72.70;;;;;;5045227;28;20198;-53
2021/12/23 05:15:38;;;;;;;5.60;4.10;;;28.50;72.70;;;;;;5045707;28;20022;-48
2021/12/23 05:18:06;;;;;;;9.13;3.95;;;28.50;72.80;;;;;;5051705;28;20060;-44
2021/12/23 05:20:33;;;;;;;7.25;4.10;;;28.50;73.00;;;;;;5051560;28;20029;-48
2021/12/23 05:22:59;;;;;;;9.07;4.20;;;28.50;73.10;;;;;;5045833;28;20089;-48
2021/12/23 05:25:26;;;;;;;6.30;4.20;;;28.40;73.30;;;;;;5045521;28;20209;-48
2021/12/23 05:27:54;;;;;;;8.57;4.85;;;28.40;73.50;;;;;;5045244;28;20052;-44
2021/12/23 05:30:23;;;;;;;10.00;4.63;;;28.40;73.60;;;;;;5044980;28;20126;-51
2021/12/23 05:32:49;;;;;;;10.43;4.50;;;28.40;73.80;;;;;;5045755;28;20025;-56
2021/12/23 05:35:18;;;;;;;8.77;4.78;;;28.40;73.80;;;;;;5045192;28;20218;-51
2021/12/23 05:37:45;;;;;;;8.05;4.22;;;28.40;74.00;;;;;;5045459;28;20268;-47
2021/12/23 05:40:15;;;;;;;6.38;4.55;;;28.40;74.20;;;;;;5045061;28;20025;-52
2021/12/23 05:42:42;;;;;;;5.55;4.50;;;28.40;74.20;;;;;;5045298;28;20083;-45
2021/12/23 05:45:09;;;;;;;6.28;4.43;;;28.30;74.20;;;;;;5044907;28;20033;-47
2021/12/23 05:47:36;;;;;;;8.95;4.55;;;28.30;74.20;;;;;;5045092;28;20022;-46
2021/12/23 05:50:04;;;;;;;7.68;4.90;;;28.30;74.40;;;;;;5044827;28;20025;-46
2021/12/23 05:52:31;;;;;;;8.80;4.50;;;28.30;74.40;;;;;;5045226;28;20053;-45
2021/12/23 05:54:57;;;;;;;5.93;4.80;;;28.30;74.40;;;;;;5044756;28;20037;-52
2021/12/23 05:57:24;;;;;;;6.20;5.07;;;28.30;74.40;;;;;;5045027;28;20025;-45
2021/12/23 05:59:51;;;;;;;7.03;5.10;;;28.20;74.40;;;;;;5044651;28;20040;-45
2021/12/23 06:02:17;;;;;;;7.68;5.43;;;28.20;74.40;;;;;;5044983;28;20048;-45
2021/12/23 06:04:44;;;;;;;5.63;4.95;;;28.20;74.40;;;;;;5044649;28;20023;-52
2021/12/23 06:07:11;;;;;;;8.60;5.47;;;28.20;74.40;;;;;;5044651;28;20022;-51
2021/12/23 06:09:37;;;;;;;6.85;5.20;;;28.20;74.50;;;;;;5044568;28;20021;-49
2021/12/23 06:12:04;;;;;;;6.43;5.32;;;28.20;74.60;;;;;;5044724;28;20027;-49
2021/12/23 06:14:31;;;;;;;10.75;5.10;;;28.20;74.50;;;;;;5044392;28;20029;-47
2021/12/23 06:16:57;;;;;;;5.47;4.78;;;28.20;74.60;;;;;;5044637;28;20021;-46
2021/12/23 06:19:24;;;;;;;6.72;5.10;;;28.20;74.60;;;;;;5044976;28;20025;-46
2021/12/23 06:21:51;;;;;;;6.05;4.72;;;28.20;74.60;;;;;;5044455;28;20089;-44
2021/12/23 06:24:17;;;;;;;5.68;4.47;;;28.10;74.50;;;;;;5043988;28;20029;-45
2021/12/23 06:26:44;;;;;;;5.18;4.63;;;28.10;74.60;;;;;;5044409;28;20017;-42
2021/12/23 06:29:10;;;;;;;5.05;4.50;;;28.10;74.70;;;;;;5044007;28;20120;-46
2021/12/23 06:31:37;;;;;;;6.28;4.90;;;28.10;74.80;;;;;;5044224;28;20025;-46
2021/12/23 06:34:03;;;;;;;6.03;4.85;;;28.10;74.90;;;;;;5044167;28;20021;-43
2021/12/23 06:36:30;;;;;;;6.43;4.90;;;28.10;75.00;;;;;;5044080;28;20053;-54
2021/12/23 06:38:56;;;;;;;5.70;4.72;;;28.00;75.10;;;;;;5043939;28;20150;-42
2021/12/23 06:41:23;;;;;;;6.88;4.63;;;28.00;75.20;;;;;;5044127;28;20040;-46
2021/12/23 06:43:50;;;;;;;6.30;4.75;;;28.00;75.20;;;;;;5043931;28;20021;-49
2021/12/23 06:46:16;;;;;;;7.43;4.70;;;28.00;75.40;;;;;;5044004;28;20044;-46
2021/12/23 06:48:43;;;;;;;7.47;4.88;;;28.00;75.50;;;;;;5043875;28;20047;-47
2021/12/23 06:51:10;;;;;;;8.13;5.07;;;28.00;75.50;;;;;;5043729;28;20337;-46
2021/12/23 06:53:37;;;;;;;9.13;4.82;;;27.90;75.50;;;;;;5043903;28;20026;-51
2021/12/23 06:56:04;;;;;;;9.30;4.75;;;27.90;75.70;;;;;;5043644;28;20025;-46
2021/12/23 06:58:32;;;;;;;6.50;4.50;;;27.90;75.80;;;;;;5043672;28;20092;-47
2021/12/23 07:00:59;;;;;;;8.13;4.47;;;27.90;76.00;;;;;;5043674;28;20022;-47
2021/12/23 07:03:36;;;;;;;8.23;4.53;;;27.90;76.10;;;;;;5043763;28;20018;-48
2021/12/23 07:06:06;;;;;;;5.43;4.65;;;27.90;76.20;;;;;;5043509;28;20210;-51
2021/12/23 07:08:35;;;;;;;11.63;5.10;;;27.90;76.10;;;;;;5043657;28;20026;-51
2021/12/23 07:11:02;;;;;;;9.07;4.95;;;27.90;76.10;;;;;;5043684;28;20014;-50
2021/12/23 07:13:29;;;;;;;6.75;5.00;;;27.90;75.90;;;;;;5043613;28;20017;-49
2021/12/23 07:15:56;;;;;;;9.73;5.50;;;27.80;75.80;;;;;;5043556;28;20024;-44
2021/12/23 07:18:22;;;;;;;11.52;5.68;;;27.80;75.90;;;;;;5043751;28;20112;-46
2021/12/23 07:20:49;;;;;;;10.10;5.90;;;27.80;76.00;;;;;;5043502;28;20013;-49
2021/12/23 07:23:16;;;;;;;6.82;5.25;;;27.80;76.10;;;;;;5044151;28;20044;-50
2021/12/23 07:25:42;;;;;;;8.27;5.20;;;27.80;76.30;;;;;;5043589;28;20049;-51
2021/12/23 07:28:09;;;;;;;8.05;5.38;;;27.80;76.40;;;;;;5043776;28;20021;-44
2021/12/23 07:30:35;;;;;;;6.70;5.55;;;27.80;76.50;;;;;;5043545;28;20222;-50
2021/12/23 07:33:02;;;;;;;6.70;5.63;;;27.80;76.60;;;;;;5043977;28;20028;-46
2021/12/23 07:35:29;;;;;;;6.47;5.68;;;27.80;76.70;;;;;;5043410;28;20036;-48
2021/12/23 07:37:59;;;;;;;7.25;5.60;;;27.80;76.90;;;;;;5047407;28;20298;-44
2021/12/23 07:40:26;;;;;;;9.13;6.18;;;27.80;77.00;;;;;;5047251;28;20043;-47
2021/12/23 07:43:09;;;;;;;9.93;5.82;;;27.80;77.20;;;;;;5047613;28;20024;-47
2021/12/23 07:45:38;;;;;;;8.70;5.95;;;27.80;77.40;;;;;;5047496;28;20357;-52
2021/12/23 07:48:05;;;;;;;8.38;5.97;;;27.80;77.60;;;;;;5047025;28;20298;-44
2021/12/23 07:50:32;;;;;;;8.40;5.85;;;27.70;77.70;;;;;;5047080;28;20033;-47
2021/12/23 07:52:58;;;;;;;7.30;6.00;;;27.70;77.90;;;;;;5047499;28;20205;-48
2021/12/23 07:55:25;;;;;;;6.82;6.15;;;27.70;78.10;;;;;;5047071;28;20325;-45
2021/12/23 07:57:52;;;;;;;10.02;6.55;;;27.80;78.40;;;;;;5047479;28;20104;-46
2021/12/23 08:00:18;;;;;;;10.00;6.30;;;27.70;78.30;;;;;;5047007;28;20025;-50
2021/12/23 08:02:45;;;;;;;6.50;5.50;;;27.70;78.50;;;;;;5047277;28;20020;-42
2021/12/23 08:05:12;;;;;;;8.52;5.65;;;27.70;78.50;;;;;;5046931;28;20033;-45
2021/12/23 08:07:38;;;;;;;6.47;5.40;;;27.70;78.60;;;;;;5047167;28;20022;-47
2021/12/23 08:10:06;;;;;;;7.82;5.90;;;27.70;78.70;;;;;;5046631;28;20052;-48
2021/12/23 08:12:33;;;;;;;8.57;5.43;;;27.70;78.80;;;;;;5047039;28;20033;-46
2021/12/23 08:14:59;;;;;;;7.85;5.40;;;27.70;78.90;;;;;;5046779;28;20364;-47
2021/12/23 08:17:26;;;;;;;10.45;5.68;;;27.70;78.90;;;;;;5046949;28;20099;-49
2021/12/23 08:19:52;;;;;;;6.75;5.05;;;27.70;79.00;;;;;;5046630;28;20034;-47
2021/12/23 08:22:19;;;;;;;8.02;5.90;;;27.70;79.00;;;;;;5047084;28;20039;-46
2021/12/23 08:24:46;;;;;;;9.73;5.72;;;27.70;79.10;;;;;;5046476;28;20092;-50
2021/12/23 08:27:12;;;;;;;7.30;5.78;;;27.70;79.00;;;;;;5046673;28;20545;-48
2021/12/23 08:29:39;;;;;;;9.80;6.13;;;27.70;79.10;;;;;;5046311;28;20116;-53
2021/12/23 08:32:06;;;;;;;9.45;5.90;;;27.60;79.00;;;;;;5046653;28;20214;-49
2021/12/23 08:34:36;;;;;;;8.93;5.93;;;27.70;79.10;;;;;;5046301;28;20444;-53
2021/12/23 08:37:06;;;;;;;11.55;6.15;;;27.70;79.20;;;;;;5046498;28;20100;-47
2021/12/23 08:39:34;;;;;;;7.32;5.40;;;27.60;79.20;;;;;;5046100;28;20206;-49
2021/12/23 08:42:01;;;;;;;7.45;6.20;;;27.70;79.30;;;;;;5046424;28;20067;-44
2021/12/23 08:44:27;;;;;;;9.02;6.13;;;27.70;79.30;;;;;;5046234;28;20052;-46
2021/12/23 08:46:54;;;;;;;8.73;6.65;;;27.70;79.50;;;;;;5044960;28;20030;-48
2021/12/23 08:49:20;;;;;;;9.05;5.70;;;27.70;79.40;;;;;;5046168;28;20055;-46
2021/12/23 08:51:47;;;;;;;9.70;5.85;;;27.70;79.30;;;;;;5046210;28;20018;-48
2021/12/23 08:54:13;;;;;;;8.60;5.90;;;27.70;79.20;;;;;;5046040;28;20115;-45
2021/12/23 08:56:40;;;;;;;9.05;6.13;;;27.70;79.10;;;;;;5046043;28;20033;-46
2021/12/23 08:59:07;;;;;;;7.13;5.80;;;27.70;79.10;;;;;;5045782;28;20071;-47
2021/12/23 09:01:34;;;;;;;7.28;5.97;;;27.60;79.00;;;;;;5045880;28;20032;-47
2021/12/23 09:04:00;;;;;;;10.43;5.82;;;27.60;78.90;;;;;;5045633;28;20075;-50
2021/12/23 09:06:27;;;;;;;8.50;5.45;;;27.60;79.00;;;;;;5045871;28;20025;-43
2021/12/23 09:08:54;;;;;;;6.88;5.50;;;27.60;78.90;;;;;;5045763;28;20026;-47
2021/12/23 09:11:21;;;;;;;7.43;5.72;;;27.60;78.90;;;;;;5045568;28;20022;-51
2021/12/23 09:13:48;;;;;;;6.35;5.75;;;27.60;78.80;;;;;;5045785;28;20028;-53
2021/12/23 09:16:14;;;;;;;7.28;5.53;;;27.60;78.80;;;;;;5045549;28;20079;-45
2021/12/23 09:18:41;;;;;;;9.07;5.70;;;27.60;78.80;;;;;;5045312;28;20195;-50
2021/12/23 09:21:07;;;;;;;6.53;5.78;;;27.60;78.90;;;;;;5045575;28;20018;-51
2021/12/23 09:23:34;;;;;;;12.55;6.43;;;27.60;78.90;;;;;;5045405;28;20210;-46
2021/12/23 09:26:01;;;;;;;11.25;6.00;;;27.60;79.00;;;;;;5045304;28;20018;-47
2021/12/23 09:28:39;;;;;;;7.68;6.18;;;27.60;79.00;;;;;;5045169;28;20250;-50
2021/12/23 09:33:51;;;;;;;12.80;6.80;;;27.50;79.10;;;;;;5045342;28;20040;-49
2021/12/23 09:36:18;;;;;;;11.27;6.30;;;27.50;79.20;;;;;;5045236;28;20025;-44
2021/12/23 09:38:45;;;;;;;9.23;7.00;;;27.50;79.20;;;;;;5044914;28;20032;-46
2021/12/23 09:41:16;;;;;;;8.32;6.32;;;27.50;79.40;;;;;;5045147;28;20029;-42
2021/12/23 09:43:44;;;;;;;6.60;5.90;;;27.50;79.40;;;;;;5044904;28;20040;-49
2021/12/23 09:46:13;;;;;;;29.73;7.32;;;27.50;79.50;;;;;;5044960;28;20036;-49
2021/12/23 09:48:44;;;;;;;9.65;5.85;;;27.50;79.60;;;;;;5051073;28;20197;-54
2021/12/23 09:51:13;;;;;;;10.77;6.25;;;27.50;79.60;;;;;;5064783;28;20366;-44
2021/12/23 09:53:43;;;;;;;9.85;6.28;;;27.50;79.70;;;;;;5064894;28;20083;-43
2021/12/23 09:56:10;;;;;;;8.50;6.10;;;27.50;79.80;;;;;;5064807;28;20080;-44
2021/12/23 09:58:37;;;;;;;8.43;6.15;;;27.40;79.70;;;;;;5064584;28;20304;-48
2021/12/23 10:01:06;;;;;;;6.95;5.90;;;27.40;79.70;;;;;;5064507;28;20017;-49
2021/12/23 10:03:34;;;;;;;10.30;6.13;;;27.40;79.80;;;;;;5064709;28;20013;-49
2021/12/23 10:06:01;;;;;;;11.00;6.22;;;27.50;80.00;;;;;;5064442;28;20041;-48
2021/12/23 10:08:28;;;;;;;6.78;5.60;;;27.40;80.00;;;;;;5064567;28;20021;-48
2021/12/23 10:11:05;;;;;;;10.75;6.28;;;27.40;80.00;;;;;;5064420;28;20066;-45
2021/12/23 10:38:42;;;;;;;11.57;7.03;;;27.40;80.50;;;;;;5063913;28;20070;-44
2021/12/23 10:41:18;;;;;;;12.02;6.65;;;27.40;80.40;;;;;;5064035;28;20040;-45
2021/12/23 10:43:47;;;;;;;15.25;6.70;;;27.40;80.20;;;;;;5063972;28;20080;-46
2021/12/23 10:46:20;;;;;;;11.02;7.05;;;27.40;80.30;;;;;;5063818;28;20036;-48
2021/12/23 10:48:51;;;;;;;11.73;6.60;;;27.40;80.40;;;;;;5063875;28;20317;-47
2021/12/23 10:51:20;;;;;;;7.95;5.97;;;27.40;80.40;;;;;;5063743;28;20083;-41
2021/12/23 10:59:10;;;;;;;18.13;7.85;;;27.40;80.60;;;;;;5063835;28;20055;-46
2021/12/23 11:02:02;;;;;;;14.45;9.20;;;27.40;80.60;;;;;;5063158;28;20229;-57
2021/12/23 11:04:34;;;;;;;18.73;8.30;;;27.40;80.70;;;;;;5063820;28;20017;-46
2021/12/23 11:07:27;;;;;;;17.10;8.50;;;27.30;80.70;;;;;;5063884;28;20302;-47
2021/12/23 11:35:49;;;;;;;19.95;9.55;;;27.30;83.50;;;;;;5025921;28;20018;-47
2021/12/23 11:43:49;;;;;;;22.30;11.05;;;27.30;83.90;;;;;;5067413;28;20020;-50
2021/12/23 11:46:21;;;;;;;29.98;11.00;;;27.30;84.10;;;;;;5067262;28;20247;-49
2021/12/23 11:48:52;;;;;;;24.30;11.45;;;27.30;84.20;;;;;;5067228;28;20020;-49
2021/12/23 11:51:31;;;;;;;25.08;12.05;;;27.30;84.50;;;;;;5066978;28;20068;-50
2021/12/23 11:54:00;;;;;;;25.08;12.43;;;27.30;85.00;;;;;;5066805;28;20027;-51
2021/12/23 11:56:27;;;;;;;23.58;12.52;;;27.30;85.20;;;;;;5067093;28;20029;-46
2021/12/23 11:58:58;;;;;;;25.60;13.18;;;27.30;85.40;;;;;;5066934;28;20212;-51
2021/12/23 12:01:39;;;;;;;23.77;13.88;;;27.30;85.50;;;;;;5066373;28;20355;-45
2021/12/23 12:04:10;;;;;;;27.40;13.27;;;27.30;85.80;;;;;;5066984;28;20025;-58
2021/12/23 12:06:38;;;;;;;26.52;12.98;;;27.30;85.90;;;;;;5066931;28;20025;-46
2021/12/23 12:09:14;;;;;;;21.88;12.43;;;27.30;86.10;;;;;;5066280;28;20364;-46
2021/12/23 12:11:47;;;;;;;19.48;12.68;;;27.30;86.20;;;;;;5066880;28;20209;-45
2021/12/23 12:14:41;;;;;;;17.83;12.65;;;27.30;86.40;;;;;;5066704;28;20016;-50
2021/12/23 12:17:26;;;;;;;21.20;12.35;;;27.30;86.60;;;;;;5056945;28;20077;-49
2021/12/23 12:20:04;;;;;;;27.40;12.85;;;27.30;86.80;;;;;;5046496;28;20022;-42
2021/12/23 12:23:00;;;;;;;21.20;12.48;;;27.30;86.80;;;;;;5046539;28;20027;-48
2021/12/23 12:25:28;;;;;;;18.88;12.68;;;27.30;87.10;;;;;;5046450;28;20028;-47
2021/12/23 12:27:57;;;;;;;20.45;12.70;;;27.30;87.10;;;;;;5046815;28;20035;-53
2021/12/23 12:30:50;;;;;;;23.20;13.98;;;27.30;87.20;;;;;;5046380;28;20128;-51
2021/12/23 12:33:19;;;;;;;21.30;14.88;;;27.30;87.40;;;;;;5047326;28;20072;-47
2021/12/23 12:36:05;;;;;;;23.83;15.85;;;27.30;87.20;;;;;;5047635;28;20087;-52
2021/12/23 12:38:35;;;;;;;31.00;15.75;;;27.30;86.90;;;;;;5066058;28;20029;-50
2021/12/23 12:41:07;;;;;;;21.90;14.45;;;27.30;86.90;;;;;;5066086;28;20058;-48
2021/12/23 12:49:24;;;;;;;22.85;14.40;;;27.30;87.00;;;;;;5062649;28;20021;-50
2021/12/23 12:51:54;;;;;;;19.23;15.02;;;27.30;86.90;;;;;;5062611;28;20025;-48
2021/12/23 12:54:32;;;;;;;20.08;14.45;;;27.30;86.70;;;;;;5046629;28;20059;-48
2021/12/23 12:57:06;;;;;;;17.55;13.05;;;27.40;86.50;;;;;;5062001;28;20096;-46
2021/12/23 12:59:38;;;;;;;19.65;12.20;;;27.30;86.20;;;;;;5065679;28;20021;-46
2021/12/23 13:02:23;;;;;;;18.50;11.23;;;27.40;86.20;;;;;;5066049;28;20027;-45
2021/12/23 13:04:56;;;;;;;16.70;10.50;;;27.40;86.00;;;;;;5065924;28;20021;-49
2021/12/23 13:07:36;;;;;;;13.48;9.35;;;27.40;85.90;;;;;;5065982;28;20036;-48
2021/12/23 13:10:12;;;;;;;11.73;8.93;;;27.40;85.90;;;;;;5065489;28;20021;-53
2021/12/23 13:12:49;;;;;;;9.63;7.95;;;27.40;85.70;;;;;;5065998;28;20029;-46
2021/12/23 13:15:22;;;;;;;11.43;8.20;;;27.40;85.50;;;;;;5065447;28;20029;-45
2021/12/23 13:18:21;;;;;;;9.38;7.75;;;27.40;85.50;;;;;;5065923;28;20031;-52
2021/12/23 13:20:55;;;;;;;16.92;8.18;;;27.40;85.50;;;;;;5065320;28;20247;-50
2021/12/23 13:23:23;;;;;;;14.35;7.93;;;27.40;85.60;;;;;;5065500;28;20021;-52
2021/12/23 13:25:55;;;;;;;14.20;8.57;;;27.50;85.80;;;;;;5065343;28;20068;-44
2021/12/23 13:28:38;;;;;;;15.63;9.02;;;27.50;85.90;;;;;;5065429;28;20084;-47
2021/12/23 13:31:23;;;;;;;10.73;8.35;;;27.50;85.80;;;;;;5065018;28;20020;-45
2021/12/23 13:33:59;;;;;;;14.95;7.78;;;27.50;85.80;;;;;;5063789;28;20028;-51
2021/12/23 13:36:33;;;;;;;12.85;8.50;;;27.50;85.80;;;;;;5054020;28;20021;-49
2021/12/23 13:39:05;;;;;;;10.27;7.38;;;27.50;85.80;;;;;;5065071;28;20016;-47
2021/12/23 13:41:36;;;;;;;12.95;7.95;;;27.50;85.90;;;;;;5064594;28;20025;-48
2021/12/23 13:44:14;;;;;;;12.15;7.85;;;27.50;86.00;;;;;;5063984;28;20088;-51
2021/12/23 13:46:54;;;;;;;25.52;8.63;;;27.50;86.20;;;;;;5065229;28;20213;-50
2021/12/23 13:49:51;;;;;;;47.88;10.60;;;27.60;86.30;;;;;;5064973;28;20062;-48
2021/12/23 13:52:25;;;;;;;99.60;15.93;;;27.60;86.50;;;;;;5064257;28;20032;-51
2021/12/23 13:55:13;;;;;;;97.25;18.50;;;27.60;86.50;;;;;;5064539;28;20244;-54
2021/12/23 13:57:46;;;;;;;88.10;16.42;;;27.60;86.70;;;;;;5058944;28;20024;-45
2021/12/23 14:00:26;;;;;;;74.30;15.13;;;27.60;86.90;;;;;;5057779;28;20039;-46
2021/12/23 14:03:04;;;;;;;49.13;14.93;;;27.60;86.80;;;;;;5060051;28;20021;-43
2021/12/23 14:05:30;;;;;;;63.97;18.60;;;27.60;86.90;;;;;;5064616;28;20082;-52